Maritime Bagui — 3EGI5 — position and weather

sailwx.info

Track history (hours):
 
Tides and Currents Weather Stations Pressure Air Temp Water Temp Dewpoint Dewpoint Depression Visibility Wind Speed Wind Dir Waves Ship Positions

Maritime Bagui

Last reported at 2017-Dec-24 14:33 UTC. Time now 2018-Jan-20 03:38 UTC.
Position S 30°29' E 030°59'.
Warning: this ship's position is 26 days out of date.

Length 225 m; draft 6.9 m.

Type: Cargo ship. MMSI: 356679000.

Date/timePositionNaut miles runAvg speedWind from/ knotsBaromVisibWave heightAir tempDewpointWater temp
2017-Dec-24 14:33S 30°29' E 030°59'116.2
2017-Dec-24 14:30S 30°28' E 030°59'816.2
2017-Dec-24 14:00S 30°20' E 031°03'816.2
2017-Dec-24 13:30S 30°13' E 031°06'815.9
2017-Dec-24 13:00S 30°06' E 031°10'714.2
2017-Dec-24 12:30S 29°59' E 031°12'611.7
2017-Dec-24 12:00S 29°53' E 031°11'2 4.5
2017-Dec-24 11:30S 29°51' E 031°11'3 6.1
2017-Dec-24 11:00S 29°49' E 031°14'5 9.1
2017-Dec-24 10:30S 29°47' E 031°18'713.4
2017-Dec-24 10:00S 29°43' E 031°25'714.0
2017-Dec-24 09:30S 29°39' E 031°31'714.1
2017-Dec-24 09:00S 29°35' E 031°38'815.0
2017-Dec-24 08:30S 29°31' E 031°45'714.9
2017-Dec-24 08:00S 29°27' E 031°53'1514.8
2017-Dec-24 07:00S 29°19' E 032°07'1514.4
2017-Dec-24 05:58S 29°11' E 032°21'714.2
2017-Dec-24 05:28S 29°07' E 032°28'914.2
2017-Dec-24 04:51S 29°02' E 032°36'613.7
2017-Dec-24 04:27S 28°59' E 032°41'2712.8
2017-Dec-24 02:21S 28°38' E 033°01'512.3
2017-Dec-24 01:58S 28°34' E 033°04'  
Track history (hours):
 
Tides and Currents Weather Stations Pressure Air Temp Water Temp Dewpoint Dewpoint Depression Visibility Wind Speed Wind Dir Waves Ship Positions

Maritime Bagui

Last reported at 2017-Dec-24 14:33 UTC. Time now 2018-Jan-20 03:38 UTC.
Position S 30°29' E 030°59'.
Warning: this ship's position is 26 days out of date.

Length 225 m; draft 6.9 m.

Type: Cargo ship. MMSI: 356679000.

Date/timePositionNaut miles runAvg speedWind from/ knotsBaromVisibWave heightAir tempDewpointWater temp
2017-Dec-24 14:33S 30°29' E 030°59'116.2
2017-Dec-24 14:30S 30°28' E 030°59'816.2
2017-Dec-24 14:00S 30°20' E 031°03'816.2
2017-Dec-24 13:30S 30°13' E 031°06'815.9
2017-Dec-24 13:00S 30°06' E 031°10'714.2
2017-Dec-24 12:30S 29°59' E 031°12'611.7
2017-Dec-24 12:00S 29°53' E 031°11'2 4.5
2017-Dec-24 11:30S 29°51' E 031°11'3 6.1
2017-Dec-24 11:00S 29°49' E 031°14'5 9.1
2017-Dec-24 10:30S 29°47' E 031°18'713.4
2017-Dec-24 10:00S 29°43' E 031°25'714.0
2017-Dec-24 09:30S 29°39' E 031°31'714.1
2017-Dec-24 09:00S 29°35' E 031°38'815.0
2017-Dec-24 08:30S 29°31' E 031°45'714.9
2017-Dec-24 08:00S 29°27' E 031°53'1514.8
2017-Dec-24 07:00S 29°19' E 032°07'1514.4
2017-Dec-24 05:58S 29°11' E 032°21'714.2
2017-Dec-24 05:28S 29°07' E 032°28'914.2
2017-Dec-24 04:51S 29°02' E 032°36'613.7
2017-Dec-24 04:27S 28°59' E 032°41'2712.8
2017-Dec-24 02:21S 28°38' E 033°01'512.3
2017-Dec-24 01:58S 28°34' E 033°04'  

Dump ship's entire track history